sensor_id;sensor_type;location;lat;lon;timestamp;pressure;altitude;pressure_sealevel;temperature;humidity
14120;BME280;7138;49.246;9.100;2022-08-16T00:00:21;97984.03;;;20.30;89.36
14120;BME280;7138;49.246;9.100;2022-08-16T00:02:47;97994.09;;;20.39;88.73
14120;BME280;7138;49.246;9.100;2022-08-16T00:05:14;97986.97;;;20.41;88.67
14120;BME280;7138;49.246;9.100;2022-08-16T00:07:40;97996.63;;;20.41;88.72
14120;BME280;7138;49.246;9.100;2022-08-16T00:10:10;97993.13;;;20.40;88.86
14120;BME280;7138;49.246;9.100;2022-08-16T00:12:37;97994.09;;;20.39;89.10
14120;BME280;7138;49.246;9.100;2022-08-16T00:15:10;97998.94;;;20.30;89.52
14120;BME280;7138;49.246;9.100;2022-08-16T00:17:38;97995.47;;;20.29;89.88
14120;BME280;7138;49.246;9.100;2022-08-16T00:20:06;97999.09;;;20.27;90.01
14120;BME280;7138;49.246;9.100;2022-08-16T00:22:36;98002.66;;;20.26;89.40
14120;BME280;7138;49.246;9.100;2022-08-16T00:25:03;97994.19;;;20.19;89.57
14120;BME280;7138;49.246;9.100;2022-08-16T00:27:29;97989.41;;;20.10;89.32
14120;BME280;7138;49.246;9.100;2022-08-16T00:29:54;98002.69;;;20.07;88.95
14120;BME280;7138;49.246;9.100;2022-08-16T00:32:21;98001.00;;;20.06;89.01
14120;BME280;7138;49.246;9.100;2022-08-16T00:34:48;97994.97;;;20.04;89.06
14120;BME280;7138;49.246;9.100;2022-08-16T00:37:14;98003.00;;;20.01;89.22
14120;BME280;7138;49.246;9.100;2022-08-16T00:39:40;97999.66;;;19.97;89.78
14120;BME280;7138;49.246;9.100;2022-08-16T00:42:06;97990.00;;;19.98;89.26
14120;BME280;7138;49.246;9.100;2022-08-16T00:44:34;97990.81;;;20.00;88.99
14120;BME280;7138;49.246;9.100;2022-08-16T00:47:05;97991.63;;;20.00;89.10
14120;BME280;7138;49.246;9.100;2022-08-16T00:49:35;97999.59;;;19.99;88.71
14120;BME280;7138;49.246;9.100;2022-08-16T00:52:03;97996.97;;;19.99;88.95
14120;BME280;7138;49.246;9.100;2022-08-16T00:54:30;98000.50;;;19.98;89.09
14120;BME280;7138;49.246;9.100;2022-08-16T00:57:00;97997.88;;;19.98;89.36
14120;BME280;7138;49.246;9.100;2022-08-16T00:59:33;98001.53;;;19.95;89.90
14120;BME280;7138;49.246;9.100;2022-08-16T01:02:02;98011.16;;;19.95;89.79
14120;BME280;7138;49.246;9.100;2022-08-16T01:04:28;98008.53;;;19.95;89.48
14120;BME280;7138;49.246;9.100;2022-08-16T01:06:55;98016.41;;;19.95;89.47
14120;BME280;7138;49.246;9.100;2022-08-16T01:09:22;98013.78;;;19.95;89.64
14120;BME280;7138;49.246;9.100;2022-08-16T01:11:48;98014.66;;;19.95;89.85
14120;BME280;7138;49.246;9.100;2022-08-16T01:14:24;98014.66;;;19.95;90.03
14120;BME280;7138;49.246;9.100;2022-08-16T01:16:53;98013.94;;;19.92;90.15
14120;BME280;7138;49.246;9.100;2022-08-16T01:19:25;98016.56;;;19.92;90.18
14120;BME280;7138;49.246;9.100;2022-08-16T01:21:58;98014.75;;;19.94;90.14
14120;BME280;7138;49.246;9.100;2022-08-16T01:24:31;98006.00;;;19.93;90.13
14120;BME280;7138;49.246;9.100;2022-08-16T01:27:02;98013.88;;;19.93;90.04
14120;BME280;7138;49.246;9.100;2022-08-16T01:29:37;98007.16;;;19.88;90.43
14120;BME280;7138;49.246;9.100;2022-08-16T01:32:04;98019.19;;;19.92;90.36
14120;BME280;7138;49.246;9.100;2022-08-16T01:34:30;98018.44;;;19.90;90.06
14120;BME280;7138;49.246;9.100;2022-08-16T01:37:00;98021.06;;;19.90;89.94
14120;BME280;7138;49.246;9.100;2022-08-16T01:39:30;98022.91;;;19.88;89.90
14120;BME280;7138;49.246;9.100;2022-08-16T01:41:56;98017.81;;;19.85;89.26
14120;BME280;7138;49.246;9.100;2022-08-16T01:44:22;98025.69;;;19.85;89.76
14120;BME280;7138;49.246;9.100;2022-08-16T01:46:48;98024.88;;;19.83;90.56
14120;BME280;7138;49.246;9.100;2022-08-16T01:49:19;98025.03;;;19.80;90.95
14120;BME280;7138;49.246;9.100;2022-08-16T01:51:50;98020.72;;;19.79;90.20
14120;BME280;7138;49.246;9.100;2022-08-16T01:54:16;98022.50;;;19.78;90.08
14120;BME280;7138;49.246;9.100;2022-08-16T01:56:43;98019.16;;;19.75;89.84
14120;BME280;7138;49.246;9.100;2022-08-16T01:59:12;98022.66;;;19.75;89.75
14120;BME280;7138;49.246;9.100;2022-08-16T02:01:39;98028.81;;;19.74;89.79
14120;BME280;7138;49.246;9.100;2022-08-16T02:04:06;98017.56;;;19.72;89.91
14120;BME280;7138;49.246;9.100;2022-08-16T02:06:32;98022.25;;;19.66;90.76
14120;BME280;7138;49.246;9.100;2022-08-16T02:08:59;98016.22;;;19.63;90.98
14120;BME280;7138;49.246;9.100;2022-08-16T02:11:26;98022.44;;;19.61;91.30
14120;BME280;7138;49.246;9.100;2022-08-16T02:13:54;98020.06;;;19.56;91.58
14120;BME280;7138;49.246;9.100;2022-08-16T02:16:20;98020.97;;;19.55;91.36
14120;BME280;7138;49.246;9.100;2022-08-16T02:18:47;98020.97;;;19.55;90.46
14120;BME280;7138;49.246;9.100;2022-08-16T02:21:15;98001.28;;;19.47;90.40
14120;BME280;7138;49.246;9.100;2022-08-16T02:23:41;98008.84;;;19.53;90.47
14120;BME280;7138;49.246;9.100;2022-08-16T02:26:08;98015.16;;;19.49;91.08
14120;BME280;7138;49.246;9.100;2022-08-16T02:28:34;98012.63;;;19.47;91.07
14120;BME280;7138;49.246;9.100;2022-08-16T02:31:08;98017.00;;;19.47;90.96
14120;BME280;7138;49.246;9.100;2022-08-16T02:33:35;98017.09;;;19.45;90.44
14120;BME280;7138;49.246;9.100;2022-08-16T02:36:01;98018.91;;;19.43;90.48
14120;BME280;7138;49.246;9.100;2022-08-16T02:38:29;98018.16;;;19.41;90.61
14120;BME280;7138;49.246;9.100;2022-08-16T02:40:56;98011.19;;;19.40;90.83
14120;BME280;7138;49.246;9.100;2022-08-16T02:43:22;98022.63;;;19.39;90.96
14120;BME280;7138;49.246;9.100;2022-08-16T02:45:48;98020.88;;;19.38;91.35
14120;BME280;7138;49.246;9.100;2022-08-16T02:48:15;98015.78;;;19.35;91.52
14120;BME280;7138;49.246;9.100;2022-08-16T02:50:41;98016.56;;;19.37;91.48
14120;BME280;7138;49.246;9.100;2022-08-16T02:53:07;98013.16;;;19.35;91.72
14120;BME280;7138;49.246;9.100;2022-08-16T02:55:33;98013.22;;;19.34;91.77
14120;BME280;7138;49.246;9.100;2022-08-16T02:57:59;98008.06;;;19.32;91.87
14120;BME280;7138;49.246;9.100;2022-08-16T03:00:25;98001.13;;;19.31;91.95
14120;BME280;7138;49.246;9.100;2022-08-16T03:02:54;98006.44;;;19.30;92.09
14120;BME280;7138;49.246;9.100;2022-08-16T03:05:21;98010.88;;;19.28;91.86
14120;BME280;7138;49.246;9.100;2022-08-16T03:07:47;98008.34;;;19.26;91.80
14120;BME280;7138;49.246;9.100;2022-08-16T03:10:13;98009.25;;;19.25;91.97
14120;BME280;7138;49.246;9.100;2022-08-16T03:12:40;98004.94;;;19.24;92.24
14120;BME280;7138;49.246;9.100;2022-08-16T03:15:10;97992.91;;;19.20;92.68
14120;BME280;7138;49.246;9.100;2022-08-16T03:17:37;97994.81;;;19.17;92.58
14120;BME280;7138;49.246;9.100;2022-08-16T03:20:04;97994.09;;;19.13;92.81
14120;BME280;7138;49.246;9.100;2022-08-16T03:22:32;97998.44;;;19.14;92.73
14120;BME280;7138;49.246;9.100;2022-08-16T03:24:59;97987.94;;;19.14;92.67
14120;BME280;7138;49.246;9.100;2022-08-16T03:27:26;97996.81;;;19.12;92.50
14120;BME280;7138;49.246;9.100;2022-08-16T03:29:52;97996.88;;;19.10;92.45
14120;BME280;7138;49.246;9.100;2022-08-16T03:32:18;98003.97;;;19.08;92.30
14120;BME280;7138;49.246;9.100;2022-08-16T03:34:44;97996.16;;;19.06;91.78
14120;BME280;7138;49.246;9.100;2022-08-16T03:37:14;97991.75;;;19.07;91.36
14120;BME280;7138;49.246;9.100;2022-08-16T03:39:41;97997.16;;;19.04;91.52
14120;BME280;7138;49.246;9.100;2022-08-16T03:42:07;98000.81;;;19.00;92.44
14120;BME280;7138;49.246;9.100;2022-08-16T03:44:33;98004.38;;;18.99;92.55
14120;BME280;7138;49.246;9.100;2022-08-16T03:46:59;98007.16;;;18.96;92.95
14120;BME280;7138;49.246;9.100;2022-08-16T03:49:25;98001.09;;;18.94;93.14
14120;BME280;7138;49.246;9.100;2022-08-16T03:51:51;97997.72;;;18.92;93.58
14120;BME280;7138;49.246;9.100;2022-08-16T03:54:17;97997.66;;;18.93;93.50
14120;BME280;7138;49.246;9.100;2022-08-16T03:56:45;98001.94;;;18.94;93.69
14120;BME280;7138;49.246;9.100;2022-08-16T03:59:10;97995.09;;;18.92;93.65
14120;BME280;7138;49.246;9.100;2022-08-16T04:01:38;97996.09;;;18.89;93.83
14120;BME280;7138;49.246;9.100;2022-08-16T04:04:04;98003.94;;;18.89;93.35
14120;BME280;7138;49.246;9.100;2022-08-16T04:06:30;98002.19;;;18.90;93.38
14120;BME280;7138;49.246;9.100;2022-08-16T04:08:56;97997.94;;;18.87;93.22
14120;BME280;7138;49.246;9.100;2022-08-16T04:11:21;98009.31;;;18.86;92.77
14120;BME280;7138;49.246;9.100;2022-08-16T04:13:49;97996.13;;;18.88;92.39
14120;BME280;7138;49.246;9.100;2022-08-16T04:16:15;97990.91;;;18.88;92.26
14120;BME280;7138;49.246;9.100;2022-08-16T04:18:42;97987.44;;;18.87;93.47
14120;BME280;7138;49.246;9.100;2022-08-16T04:21:08;97984.25;;;18.81;93.63
14120;BME280;7138;49.246;9.100;2022-08-16T04:23:34;98001.50;;;18.85;93.94
14120;BME280;7138;49.246;9.100;2022-08-16T04:26:03;98005.00;;;18.85;93.52
14120;BME280;7138;49.246;9.100;2022-08-16T04:28:29;98014.56;;;18.86;93.95
14120;BME280;7138;49.246;9.100;2022-08-16T04:30:56;98022.34;;;18.88;93.51
14120;BME280;7138;49.246;9.100;2022-08-16T04:33:22;98021.44;;;18.89;93.30
14120;BME280;7138;49.246;9.100;2022-08-16T04:35:47;98017.81;;;18.91;93.75
14120;BME280;7138;49.246;9.100;2022-08-16T04:38:13;98022.06;;;18.94;94.15
14120;BME280;7138;49.246;9.100;2022-08-16T04:40:40;98023.78;;;18.95;94.47
14120;BME280;7138;49.246;9.100;2022-08-16T04:43:05;98023.63;;;18.98;94.62
14120;BME280;7138;49.246;9.100;2022-08-16T04:45:31;98027.81;;;19.02;94.62
14120;BME280;7138;49.246;9.100;2022-08-16T04:47:58;98025.78;;;19.08;94.35
14120;BME280;7138;49.246;9.100;2022-08-16T04:50:25;98010.88;;;19.09;94.35
14120;BME280;7138;49.246;9.100;2022-08-16T04:52:52;98017.50;;;19.18;94.08
14120;BME280;7138;49.246;9.100;2022-08-16T04:55:22;98027.03;;;19.19;94.04
14120;BME280;7138;49.246;9.100;2022-08-16T04:57:52;98031.28;;;19.21;94.17
14120;BME280;7138;49.246;9.100;2022-08-16T05:00:23;98031.00;;;19.27;94.21
14120;BME280;7138;49.246;9.100;2022-08-16T05:02:51;98025.34;;;19.36;94.12
14120;BME280;7138;49.246;9.100;2022-08-16T05:05:20;98035.66;;;19.59;94.16
14120;BME280;7138;49.246;9.100;2022-08-16T05:07:46;98024.81;;;19.84;93.53
14120;BME280;7138;49.246;9.100;2022-08-16T05:10:13;98032.81;;;20.17;92.94
14120;BME280;7138;49.246;9.100;2022-08-16T05:12:39;98043.97;;;20.56;91.69
14120;BME280;7138;49.246;9.100;2022-08-16T05:15:08;98048.84;;;20.97;90.65
14120;BME280;7138;49.246;9.100;2022-08-16T05:17:35;98044.72;;;21.41;88.68
14120;BME280;7138;49.246;9.100;2022-08-16T05:20:03;98047.19;;;21.91;87.56
14120;BME280;7138;49.246;9.100;2022-08-16T05:22:31;98047.84;;;22.40;85.17
14120;BME280;7138;49.246;9.100;2022-08-16T05:24:57;98045.97;;;22.86;83.47
14120;BME280;7138;49.246;9.100;2022-08-16T05:27:23;98058.16;;;23.31;82.08
14120;BME280;7138;49.246;9.100;2022-08-16T05:29:49;98056.53;;;23.71;80.43
14120;BME280;7138;49.246;9.100;2022-08-16T05:32:15;98050.84;;;24.04;78.75
14120;BME280;7138;49.246;9.100;2022-08-16T05:34:40;98053.16;;;24.35;78.32
14120;BME280;7138;49.246;9.100;2022-08-16T05:37:06;98064.56;;;24.62;76.89
14120;BME280;7138;49.246;9.100;2022-08-16T05:39:33;98066.63;;;24.84;75.75
14120;BME280;7138;49.246;9.100;2022-08-16T05:41:59;98072.56;;;25.00;75.83
14120;BME280;7138;49.246;9.100;2022-08-16T05:44:25;98069.81;;;25.02;74.53
14120;BME280;7138;49.246;9.100;2022-08-16T05:46:54;98075.19;;;24.87;74.83
14120;BME280;7138;49.246;9.100;2022-08-16T05:49:21;98075.66;;;24.55;75.05
14120;BME280;7138;49.246;9.100;2022-08-16T05:51:47;98081.06;;;24.26;75.96
14120;BME280;7138;49.246;9.100;2022-08-16T05:54:15;98078.41;;;24.00;77.22
14120;BME280;7138;49.246;9.100;2022-08-16T05:56:44;98069.88;;;23.82;77.78
14120;BME280;7138;49.246;9.100;2022-08-16T05:59:16;98078.66;;;23.68;77.42
14120;BME280;7138;49.246;9.100;2022-08-16T06:01:43;98072.47;;;23.55;77.96
14120;BME280;7138;49.246;9.100;2022-08-16T06:04:12;98061.00;;;23.42;78.50
14120;BME280;7138;49.246;9.100;2022-08-16T06:06:38;98077.56;;;23.30;79.02
14120;BME280;7138;49.246;9.100;2022-08-16T06:09:04;98071.31;;;23.17;79.18
14120;BME280;7138;49.246;9.100;2022-08-16T06:11:31;98070.22;;;23.07;79.52
14120;BME280;7138;49.246;9.100;2022-08-16T06:13:59;98069.81;;;22.99;80.40
14120;BME280;7138;49.246;9.100;2022-08-16T06:16:25;98072.06;;;23.05;80.71
14120;BME280;7138;49.246;9.100;2022-08-16T06:18:50;98072.84;;;23.21;80.51
14120;BME280;7138;49.246;9.100;2022-08-16T06:21:16;98093.78;;;23.52;79.86
14120;BME280;7138;49.246;9.100;2022-08-16T06:23:42;98077.50;;;23.86;79.01
14120;BME280;7138;49.246;9.100;2022-08-16T06:26:08;98071.66;;;24.08;78.19
14120;BME280;7138;49.246;9.100;2022-08-16T06:28:34;98068.38;;;24.19;77.67
14120;BME280;7138;49.246;9.100;2022-08-16T06:31:01;98076.19;;;24.20;77.34
14120;BME280;7138;49.246;9.100;2022-08-16T06:33:27;98070.56;;;24.12;77.09
14120;BME280;7138;49.246;9.100;2022-08-16T06:35:54;98066.13;;;23.99;77.43
14120;BME280;7138;49.246;9.100;2022-08-16T06:38:21;98069.38;;;23.89;78.30
14120;BME280;7138;49.246;9.100;2022-08-16T06:40:47;98079.31;;;23.86;78.70
14120;BME280;7138;49.246;9.100;2022-08-16T06:43:13;98070.78;;;23.95;79.39
14120;BME280;7138;49.246;9.100;2022-08-16T06:45:39;98072.34;;;24.12;78.78
14120;BME280;7138;49.246;9.100;2022-08-16T06:48:09;98067.44;;;24.32;78.84
14120;BME280;7138;49.246;9.100;2022-08-16T06:50:35;98071.25;;;24.68;77.99
14120;BME280;7138;49.246;9.100;2022-08-16T06:53:02;98070.03;;;24.98;75.97
14120;BME280;7138;49.246;9.100;2022-08-16T06:55:29;98074.56;;;25.22;75.11
14120;BME280;7138;49.246;9.100;2022-08-16T06:57:56;98070.00;;;25.24;74.38
14120;BME280;7138;49.246;9.100;2022-08-16T07:00:23;98070.41;;;25.30;74.55
14120;BME280;7138;49.246;9.100;2022-08-16T07:02:49;98069.25;;;25.34;74.88
14120;BME280;7138;49.246;9.100;2022-08-16T07:05:20;98075.91;;;25.40;74.59
14120;BME280;7138;49.246;9.100;2022-08-16T07:07:48;98085.91;;;25.49;74.44
14120;BME280;7138;49.246;9.100;2022-08-16T07:10:17;98075.72;;;25.56;74.94
14120;BME280;7138;49.246;9.100;2022-08-16T07:12:43;98083.19;;;25.74;74.43
14120;BME280;7138;49.246;9.100;2022-08-16T07:15:10;98090.38;;;25.85;73.70
14120;BME280;7138;49.246;9.100;2022-08-16T07:17:36;98089.59;;;25.95;73.56
14120;BME280;7138;49.246;9.100;2022-08-16T07:20:03;98087.00;;;26.06;73.10
14120;BME280;7138;49.246;9.100;2022-08-16T07:22:31;98091.66;;;26.16;72.39
14120;BME280;7138;49.246;9.100;2022-08-16T07:24:57;98087.38;;;26.26;72.78
14120;BME280;7138;49.246;9.100;2022-08-16T07:27:23;98091.66;;;26.39;72.11
14120;BME280;7138;49.246;9.100;2022-08-16T07:29:48;98085.94;;;26.56;72.26
14120;BME280;7138;49.246;9.100;2022-08-16T07:32:14;98099.41;;;26.77;71.89
14120;BME280;7138;49.246;9.100;2022-08-16T07:34:41;98093.69;;;27.05;70.32
14120;BME280;7138;49.246;9.100;2022-08-16T07:37:09;98089.38;;;27.38;70.04
14120;BME280;7138;49.246;9.100;2022-08-16T07:39:38;98077.94;;;27.71;68.89
14120;BME280;7138;49.246;9.100;2022-08-16T07:42:05;98073.03;;;27.98;67.96
14120;BME280;7138;49.246;9.100;2022-08-16T07:44:31;98073.63;;;28.24;67.44
14120;BME280;7138;49.246;9.100;2022-08-16T07:46:57;98091.97;;;28.58;66.58
14120;BME280;7138;49.246;9.100;2022-08-16T07:49:23;98083.38;;;28.87;66.24
14120;BME280;7138;49.246;9.100;2022-08-16T07:51:49;98086.56;;;29.01;65.25
14120;BME280;7138;49.246;9.100;2022-08-16T07:54:17;98079.16;;;29.05;65.57
14120;BME280;7138;49.246;9.100;2022-08-16T07:56:44;98084.81;;;29.11;65.24
14120;BME280;7138;49.246;9.100;2022-08-16T07:59:10;98092.28;;;29.17;65.32
14120;BME280;7138;49.246;9.100;2022-08-16T08:01:37;98083.56;;;29.15;65.19
14120;BME280;7138;49.246;9.100;2022-08-16T08:04:04;98084.72;;;29.22;65.44
14120;BME280;7138;49.246;9.100;2022-08-16T08:06:33;98094.63;;;29.32;64.48
14120;BME280;7138;49.246;9.100;2022-08-16T08:08:59;98083.16;;;29.41;64.27
14120;BME280;7138;49.246;9.100;2022-08-16T08:11:27;98083.53;;;29.57;63.92
14120;BME280;7138;49.246;9.100;2022-08-16T08:13:56;98089.31;;;29.71;62.67
14120;BME280;7138;49.246;9.100;2022-08-16T08:16:25;98084.75;;;29.83;62.94
14120;BME280;7138;49.246;9.100;2022-08-16T08:18:52;98090.13;;;30.02;63.32
14120;BME280;7138;49.246;9.100;2022-08-16T08:21:23;98100.94;;;29.91;62.18
14120;BME280;7138;49.246;9.100;2022-08-16T08:23:50;98096.88;;;29.97;62.92
14120;BME280;7138;49.246;9.100;2022-08-16T08:26:16;98096.03;;;29.96;62.00
14120;BME280;7138;49.246;9.100;2022-08-16T08:28:42;98097.44;;;30.00;62.70
14120;BME280;7138;49.246;9.100;2022-08-16T08:31:10;98104.78;;;30.17;61.57
14120;BME280;7138;49.246;9.100;2022-08-16T08:33:36;98098.03;;;30.32;60.92
14120;BME280;7138;49.246;9.100;2022-08-16T08:36:05;98095.44;;;30.42;61.08
14120;BME280;7138;49.246;9.100;2022-08-16T08:38:32;98098.78;;;30.54;61.27
14120;BME280;7138;49.246;9.100;2022-08-16T08:40:59;98110.59;;;30.61;60.50
14120;BME280;7138;49.246;9.100;2022-08-16T08:43:25;98106.66;;;30.46;60.39
14120;BME280;7138;49.246;9.100;2022-08-16T08:45:52;98113.22;;;30.32;60.36
14120;BME280;7138;49.246;9.100;2022-08-16T08:48:21;98110.81;;;30.29;60.89
14120;BME280;7138;49.246;9.100;2022-08-16T08:50:47;98099.34;;;30.48;60.76
14120;BME280;7138;49.246;9.100;2022-08-16T08:53:14;98108.47;;;30.74;60.36
14120;BME280;7138;49.246;9.100;2022-08-16T08:55:41;98101.44;;;30.92;60.38
14120;BME280;7138;49.246;9.100;2022-08-16T08:58:07;98106.53;;;30.76;60.51
14120;BME280;7138;49.246;9.100;2022-08-16T09:00:34;98102.72;;;30.69;60.21
14120;BME280;7138;49.246;9.100;2022-08-16T09:03:02;98113.13;;;30.91;60.33
14120;BME280;7138;49.246;9.100;2022-08-16T09:05:29;98118.34;;;31.02;59.42
14120;BME280;7138;49.246;9.100;2022-08-16T09:07:55;98123.66;;;31.02;58.22
14120;BME280;7138;49.246;9.100;2022-08-16T09:10:22;98122.13;;;31.00;58.86
14120;BME280;7138;49.246;9.100;2022-08-16T09:12:48;98130.16;;;31.00;59.34
14120;BME280;7138;49.246;9.100;2022-08-16T09:15:15;98133.78;;;30.99;58.81
14120;BME280;7138;49.246;9.100;2022-08-16T09:17:42;98129.72;;;30.95;59.24
14120;BME280;7138;49.246;9.100;2022-08-16T09:20:11;98129.44;;;30.88;59.65
14120;BME280;7138;49.246;9.100;2022-08-16T09:22:41;98121.81;;;30.93;58.45
14120;BME280;7138;49.246;9.100;2022-08-16T09:25:08;98119.59;;;30.69;58.21
14120;BME280;7138;49.246;9.100;2022-08-16T09:27:34;98123.09;;;30.60;59.08
14120;BME280;7138;49.246;9.100;2022-08-16T09:30:00;98124.16;;;30.29;60.11
14120;BME280;7138;49.246;9.100;2022-08-16T09:32:27;98118.31;;;30.45;61.05
14120;BME280;7138;49.246;9.100;2022-08-16T09:34:53;98119.44;;;30.61;59.11
14120;BME280;7138;49.246;9.100;2022-08-16T09:37:19;98113.25;;;30.80;59.33
14120;BME280;7138;49.246;9.100;2022-08-16T09:39:46;98117.75;;;31.08;59.12
14120;BME280;7138;49.246;9.100;2022-08-16T09:42:12;98119.16;;;31.22;59.30
14120;BME280;7138;49.246;9.100;2022-08-16T09:44:40;98116.66;;;31.57;57.52
14120;BME280;7138;49.246;9.100;2022-08-16T09:47:06;98122.28;;;31.91;58.10
14120;BME280;7138;49.246;9.100;2022-08-16T09:49:34;98115.19;;;32.00;57.09
14120;BME280;7138;49.246;9.100;2022-08-16T09:52:00;98102.78;;;32.08;56.84
14120;BME280;7138;49.246;9.100;2022-08-16T09:54:27;98108.94;;;32.36;56.26
14120;BME280;7138;49.246;9.100;2022-08-16T09:56:54;98110.19;;;32.59;55.90
14120;BME280;7138;49.246;9.100;2022-08-16T09:59:22;98108.44;;;32.85;55.28
14120;BME280;7138;49.246;9.100;2022-08-16T10:01:49;98109.50;;;33.10;55.03
14120;BME280;7138;49.246;9.100;2022-08-16T10:04:16;98109.91;;;33.23;54.86
14120;BME280;7138;49.246;9.100;2022-08-16T10:06:42;98109.03;;;33.40;54.54
14120;BME280;7138;49.246;9.100;2022-08-16T10:09:12;98106.97;;;33.60;53.71
14120;BME280;7138;49.246;9.100;2022-08-16T10:11:40;98115.34;;;33.31;53.51
14120;BME280;7138;49.246;9.100;2022-08-16T10:14:27;98099.91;;;33.25;54.00
14120;BME280;7138;49.246;9.100;2022-08-16T10:16:57;98104.56;;;33.23;54.09
14120;BME280;7138;49.246;9.100;2022-08-16T10:19:25;98109.94;;;33.06;54.21
14120;BME280;7138;49.246;9.100;2022-08-16T10:21:51;98102.25;;;32.85;54.37
14120;BME280;7138;49.246;9.100;2022-08-16T10:24:18;98103.31;;;32.57;54.03
14120;BME280;7138;49.246;9.100;2022-08-16T10:26:44;98101.75;;;32.36;54.35
14120;BME280;7138;49.246;9.100;2022-08-16T10:29:11;98097.63;;;32.24;55.08
14120;BME280;7138;49.246;9.100;2022-08-16T10:31:39;98103.75;;;32.34;55.47
14120;BME280;7138;49.246;9.100;2022-08-16T10:34:05;98101.66;;;32.56;55.45
14120;BME280;7138;49.246;9.100;2022-08-16T10:36:31;98107.59;;;32.85;54.18
14120;BME280;7138;49.246;9.100;2022-08-16T10:38:57;98100.38;;;33.03;53.94
14120;BME280;7138;49.246;9.100;2022-08-16T10:41:23;98104.81;;;33.12;54.27
14120;BME280;7138;49.246;9.100;2022-08-16T10:43:49;98101.03;;;33.23;53.85
14120;BME280;7138;49.246;9.100;2022-08-16T10:46:16;98101.78;;;33.33;53.89
14120;BME280;7138;49.246;9.100;2022-08-16T10:48:44;98106.81;;;33.36;53.26
14120;BME280;7138;49.246;9.100;2022-08-16T10:51:11;98101.97;;;33.39;54.01
14120;BME280;7138;49.246;9.100;2022-08-16T10:53:38;98090.13;;;33.16;54.16
14120;BME280;7138;49.246;9.100;2022-08-16T10:56:07;98097.25;;;33.33;53.28
14120;BME280;7138;49.246;9.100;2022-08-16T10:58:35;98092.09;;;33.40;52.95
14120;BME280;7138;49.246;9.100;2022-08-16T11:01:02;98098.09;;;33.60;53.17
14120;BME280;7138;49.246;9.100;2022-08-16T11:03:28;98096.00;;;33.79;53.17
14120;BME280;7138;49.246;9.100;2022-08-16T11:05:56;98092.22;;;33.98;51.75
14120;BME280;7138;49.246;9.100;2022-08-16T11:08:22;98091.91;;;34.01;51.73
14120;BME280;7138;49.246;9.100;2022-08-16T11:10:48;98089.34;;;33.91;52.04
14120;BME280;7138;49.246;9.100;2022-08-16T11:13:17;98103.53;;;33.76;51.99
14120;BME280;7138;49.246;9.100;2022-08-16T11:15:43;98100.06;;;33.83;51.33
14120;BME280;7138;49.246;9.100;2022-08-16T11:18:11;98103.09;;;33.88;51.28
14120;BME280;7138;49.246;9.100;2022-08-16T11:20:37;98108.25;;;33.74;51.12
14120;BME280;7138;49.246;9.100;2022-08-16T11:23:05;98103.84;;;33.65;51.53
14120;BME280;7138;49.246;9.100;2022-08-16T11:25:33;98102.41;;;33.52;52.00
14120;BME280;7138;49.246;9.100;2022-08-16T11:28:00;98105.41;;;33.49;52.23
14120;BME280;7138;49.246;9.100;2022-08-16T11:30:30;98105.84;;;33.45;52.54
14120;BME280;7138;49.246;9.100;2022-08-16T11:32:56;98104.16;;;33.62;52.60
14120;BME280;7138;49.246;9.100;2022-08-16T11:35:25;98109.34;;;33.63;52.26
14120;BME280;7138;49.246;9.100;2022-08-16T11:37:56;98113.38;;;33.59;51.78
14120;BME280;7138;49.246;9.100;2022-08-16T11:40:26;98106.38;;;33.48;52.20
14120;BME280;7138;49.246;9.100;2022-08-16T11:42:53;98104.03;;;33.45;52.07
14120;BME280;7138;49.246;9.100;2022-08-16T11:45:20;98108.41;;;33.46;52.02
14120;BME280;7138;49.246;9.100;2022-08-16T11:47:46;98098.03;;;33.51;51.54
14120;BME280;7138;49.246;9.100;2022-08-16T11:50:12;98095.03;;;33.54;51.69
14120;BME280;7138;49.246;9.100;2022-08-16T11:52:39;98086.81;;;33.56;51.76
14120;BME280;7138;49.246;9.100;2022-08-16T11:55:08;98090.75;;;33.44;52.03
14120;BME280;7138;49.246;9.100;2022-08-16T11:57:37;98082.34;;;33.39;52.52
14120;BME280;7138;49.246;9.100;2022-08-16T12:00:10;98084.16;;;33.30;52.25
14120;BME280;7138;49.246;9.100;2022-08-16T12:02:37;98084.50;;;33.35;52.84
14120;BME280;7138;49.246;9.100;2022-08-16T12:05:05;98088.66;;;33.56;51.73
14120;BME280;7138;49.246;9.100;2022-08-16T12:07:31;98087.13;;;33.79;51.67
14120;BME280;7138;49.246;9.100;2022-08-16T12:09:57;98088.69;;;33.97;50.95
14120;BME280;7138;49.246;9.100;2022-08-16T12:12:23;98090.44;;;34.15;50.88
14120;BME280;7138;49.246;9.100;2022-08-16T12:14:51;98083.25;;;34.23;51.06
14120;BME280;7138;49.246;9.100;2022-08-16T12:17:18;98084.66;;;34.43;50.32
14120;BME280;7138;49.246;9.100;2022-08-16T12:19:45;98084.16;;;34.56;49.52
14120;BME280;7138;49.246;9.100;2022-08-16T12:22:14;98088.38;;;34.67;49.46
14120;BME280;7138;49.246;9.100;2022-08-16T12:24:40;98083.19;;;34.73;50.25
14120;BME280;7138;49.246;9.100;2022-08-16T12:27:06;98088.91;;;34.70;49.86
14120;BME280;7138;49.246;9.100;2022-08-16T12:29:32;98087.03;;;34.63;49.53
14120;BME280;7138;49.246;9.100;2022-08-16T12:32:00;98084.81;;;34.58;50.17
14120;BME280;7138;49.246;9.100;2022-08-16T12:34:26;98083.97;;;34.49;50.58
14120;BME280;7138;49.246;9.100;2022-08-16T12:36:52;98081.97;;;34.43;50.33
14120;BME280;7138;49.246;9.100;2022-08-16T12:39:17;98070.88;;;34.46;50.64
14120;BME280;7138;49.246;9.100;2022-08-16T12:41:45;98077.44;;;34.52;50.58
14120;BME280;7138;49.246;9.100;2022-08-16T12:44:12;98075.25;;;34.55;49.92
14120;BME280;7138;49.246;9.100;2022-08-16T12:46:38;98078.59;;;34.57;50.03
14120;BME280;7138;49.246;9.100;2022-08-16T12:49:05;98081.28;;;34.57;50.49
14120;BME280;7138;49.246;9.100;2022-08-16T12:51:36;98070.44;;;34.59;50.78
14120;BME280;7138;49.246;9.100;2022-08-16T12:54:04;98076.59;;;34.43;48.98
14120;BME280;7138;49.246;9.100;2022-08-16T12:56:35;98072.06;;;34.44;48.98
14120;BME280;7138;49.246;9.100;2022-08-16T12:59:07;98066.19;;;34.48;49.35
14120;BME280;7138;49.246;9.100;2022-08-16T13:01:36;98070.56;;;34.49;50.16
14120;BME280;7138;49.246;9.100;2022-08-16T13:04:05;98067.69;;;34.43;49.03
14120;BME280;7138;49.246;9.100;2022-08-16T13:06:35;98059.13;;;34.39;50.01
14120;BME280;7138;49.246;9.100;2022-08-16T13:09:04;98058.78;;;34.50;49.95